Dickinson's Hourly Summary for Tuesday, March 14, 2017
Hour Temp
(f)
RH
(%)
Solar Rad.
(MJ/m2)
Rainfall
(in)
Wind
(mph)
3/14/2017 12:00 AM 54 75 0 0 0.02
3/14/2017 1:00 AM 52 92 0 0 0
3/14/2017 2:00 AM 50 99 0 0 0
3/14/2017 3:00 AM 50 82 0 0 0.53
3/14/2017 4:00 AM 52 63 0 0 4.28
3/14/2017 5:00 AM 51 59 0 0 4.65
3/14/2017 6:00 AM 50 58 0 0 4.68
3/14/2017 7:00 AM 49 58 0 0 5.09
3/14/2017 8:00 AM 48 55 0.02 0 4.91
3/14/2017 9:00 AM 49 54 0.25 0 5.51
3/14/2017 10:00 AM 50 57 1.38 0 5.72
3/14/2017 11:00 AM 52 52 2.14 0 5.72
3/14/2017 12:00 PM 54 45 2.74 0 4.39
3/14/2017 1:00 PM 57 43 3.13 0 2.97
3/14/2017 2:00 PM 60 42 3.25 0 3.29
3/14/2017 3:00 PM 62 38 3.12 0 2.88
3/14/2017 4:00 PM 65 35 2.73 0 2.36
3/14/2017 5:00 PM 65 40 2.15 0 3.79
3/14/2017 6:00 PM 64 43 1.43 0 3.88
3/14/2017 7:00 PM 62 43 0.39 0 3.7
3/14/2017 8:00 PM 59 46 0.03 0 2.15
3/14/2017 9:00 PM 56 62 0 0 0.28
3/14/2017 10:00 PM 54 72 0 0 0.1
3/14/2017 11:00 PM 52 84 0 0 0
Data Summary 54 58 22.76 0.00 2.95